Time;durP1;ratioP1;P1;durP2;ratioP2;P2;SDS_P1;SDS_P2;PMS_P1;PMS_P2;Temp;Humidity;BMP_temperature;BMP_pressure;BME280_temperature;BME280_humidity;BME280_pressure;Samples;Min_cycle;Max_cycle;Signal;HPM_P1;HPM_P2
2023/01/07 00:00:36;;;;;;;4.90;3.03;;;;;;;9.05;100.00;153683.50;4994954;28;20462;-83
2023/01/07 00:03:22;;;;;;;3.00;2.40;;;;;;;9.06;100.00;153686.06;4991284;28;20460;-83
2023/01/07 00:06:09;;;;;;;4.17;2.80;;;;;;;9.06;100.00;153686.06;4991618;28;20526;-81
2023/01/07 00:08:57;;;;;;;3.20;2.50;;;;;;;9.03;100.00;153678.28;5005659;28;20491;-82
2023/01/07 00:11:42;;;;;;;3.30;2.43;;;;;;;9.01;100.00;153673.13;4996858;28;20453;-83
2023/01/07 00:14:28;;;;;;;3.50;2.60;;;;;;;9.01;100.00;153674.44;4985180;28;20457;-83
2023/01/07 00:17:13;;;;;;;7.30;2.63;;;;;;;8.99;100.00;153667.97;4976922;28;20458;-83
2023/01/07 00:19:59;;;;;;;4.70;3.83;;;;;;;9.00;100.00;153671.81;4987425;28;21062;-84
2023/01/07 00:22:44;;;;;;;3.50;2.77;;;;;;;9.00;100.00;153670.56;5000238;28;20455;-83
2023/01/07 00:25:31;;;;;;;3.93;2.97;;;;;;;9.00;100.00;153670.56;5000584;28;20433;-84
2023/01/07 00:28:16;;;;;;;4.60;3.77;;;;;;;8.98;100.00;153666.66;4983386;28;20514;-83
2023/01/07 00:31:03;;;;;;;4.60;4.20;;;;;;;8.97;100.00;153662.81;4997413;28;20442;-83
2023/01/07 00:34:05;;;;;;;3.97;3.07;;;;;;;8.97;100.00;153662.81;4994898;28;20461;-83
2023/01/07 00:37:16;;;;;;;4.50;3.50;;;;;;;8.99;100.00;153667.97;5008720;28;20581;-84
2023/01/07 00:39:56;;;;;;;5.40;3.40;;;;;;;8.97;100.00;153664.09;5002443;28;20471;-83
2023/01/07 00:43:00;;;;;;;3.03;2.60;;;;;;;8.95;100.00;153658.91;4991824;28;20450;-83
2023/01/07 00:45:45;;;;;;;3.23;2.50;;;;;;;8.94;100.00;153656.34;5001291;28;20578;-83
2023/01/07 00:48:30;;;;;;;3.33;2.77;;;;;;;8.94;100.00;153655.03;4997011;28;20454;-83
2023/01/07 00:51:16;;;;;;;2.80;2.50;;;;;;;8.92;100.00;153651.13;4982633;28;20442;-83
2023/01/07 00:54:01;;;;;;;3.80;2.90;;;;;;;8.91;100.00;153648.56;5004550;28;20597;-83
2023/01/07 00:56:48;;;;;;;3.90;3.53;;;;;;;8.93;100.00;153652.44;4995869;28;20503;-83
2023/01/07 00:59:35;;;;;;;4.67;3.30;;;;;;;8.88;100.00;153639.50;4994550;28;20530;-83
2023/01/07 01:02:21;;;;;;;3.87;2.90;;;;;;;8.91;100.00;153648.56;4991655;28;20473;-83
2023/01/07 01:05:07;;;;;;;4.03;2.93;;;;;;;8.91;100.00;153648.56;4990981;28;20445;-83
2023/01/07 01:07:52;;;;;;;4.50;2.63;;;;;;;8.88;100.00;153640.81;4986669;28;20442;-83
2023/01/07 01:10:38;;;;;;;3.37;2.57;;;;;;;8.88;100.00;153640.81;4979466;28;20977;-83
2023/01/07 01:13:23;;;;;;;3.10;2.80;;;;;;;8.89;100.00;153642.13;5004643;28;20552;-83
2023/01/07 01:16:13;;;;;;;4.53;2.27;;;;;;;8.86;100.00;153635.66;4995476;28;20437;-83
2023/01/07 01:18:58;;;;;;;2.63;2.43;;;;;;;8.88;100.00;153639.50;4990935;28;20410;-83
2023/01/07 01:21:43;;;;;;;3.30;2.33;;;;;;;8.89;100.00;153642.13;5006119;28;20444;-83
2023/01/07 01:24:29;;;;;;;3.03;2.43;;;;;;;8.87;100.00;153638.22;4994067;28;20536;-83
2023/01/07 01:27:14;;;;;;;3.37;2.63;;;;;;;8.87;100.00;153636.94;4975035;28;20438;-83
2023/01/07 01:30:01;;;;;;;2.60;2.40;;;;;;;8.87;100.00;153636.94;5002059;28;20417;-84
2023/01/07 01:32:48;;;;;;;2.33;2.13;;;;;;;8.85;100.00;153631.75;4993957;28;20455;-83
2023/01/07 01:35:34;;;;;;;3.10;2.37;;;;;;;8.82;100.00;153625.28;5008206;28;20449;-83
2023/01/07 01:38:20;;;;;;;2.20;2.00;;;;;;;8.83;100.00;153626.59;4989810;28;20564;-83
2023/01/07 01:41:05;;;;;;;2.93;2.63;;;;;;;8.86;100.00;153634.34;5005213;28;20506;-83
2023/01/07 01:43:52;;;;;;;2.93;2.40;;;;;;;8.84;100.00;153630.44;4993208;28;20561;-83
2023/01/07 01:46:39;;;;;;;4.40;1.80;;;;;;;8.84;100.00;153629.19;5012834;28;20774;-83
2023/01/07 01:49:30;;;;;;;2.03;1.80;;;;;;;8.83;100.00;153626.59;4984634;28;20823;-83
2023/01/07 01:52:18;;;;;;;2.73;2.30;;;;;;;8.84;100.00;153629.19;5000313;28;20438;-83
2023/01/07 01:55:05;;;;;;;2.57;2.13;;;;;;;8.83;100.00;153627.88;4993463;28;20512;-84
2023/01/07 01:57:54;;;;;;;3.30;1.97;;;;;;;8.82;100.00;153623.97;4989613;28;20959;-83
2023/01/07 02:00:39;;;;;;;2.20;2.00;;;;;;;8.81;100.00;153621.41;4998725;28;20933;-83
2023/01/07 02:03:27;;;;;;;2.80;2.00;;;;;;;8.83;100.00;153626.59;5001530;28;20465;-83
2023/01/07 02:06:18;;;;;;;1.80;1.70;;;;;;;8.80;100.00;153620.13;5011702;28;20430;-83
2023/01/07 02:09:04;;;;;;;2.27;1.80;;;;;;;8.82;100.00;153625.28;4990945;28;20965;-83
2023/01/07 02:11:57;;;;;;;1.60;1.50;;;;;;;8.83;100.00;153627.88;4993116;28;20444;-83
2023/01/07 02:14:59;;;;;;;2.33;2.13;;;;;;;8.82;100.00;153623.97;4973856;28;20521;-83
2023/01/07 02:18:11;;;;;;;3.00;2.00;;;;;;;8.80;100.00;153618.81;4986085;28;20956;-84
2023/01/07 02:21:06;;;;;;;1.70;1.40;;;;;;;8.86;100.00;153634.34;4994212;28;20409;-84
2023/01/07 02:24:36;;;;;;;2.10;1.67;;;;;;;8.79;100.00;153616.25;4994645;28;20445;-83
2023/01/07 02:27:47;;;;;;;1.73;1.50;;;;;;;8.78;100.00;153614.97;4987279;28;20937;-82
2023/01/07 02:30:54;;;;;;;1.67;1.43;;;;;;;8.75;100.00;153605.91;4988787;28;20498;-83
2023/01/07 02:33:47;;;;;;;1.30;1.00;;;;;;;8.72;100.00;153599.44;5003769;28;20456;-83
2023/01/07 02:36:45;;;;;;;1.20;0.83;;;;;;;8.71;98.34;153595.56;5002070;28;20649;-83
2023/01/07 02:39:38;;;;;;;1.30;1.00;;;;;;;8.72;94.28;153598.13;4991244;28;20450;-83
2023/01/07 02:42:30;;;;;;;1.40;1.10;;;;;;;8.74;94.09;153604.59;4993424;28;20430;-80
2023/01/07 02:45:32;;;;;;;1.47;0.90;;;;;;;8.74;94.75;153604.59;4995123;28;20532;-79
2023/01/07 02:48:20;;;;;;;2.10;1.67;;;;;;;8.78;95.87;153613.66;4993867;28;20513;-79
2023/01/07 02:51:06;;;;;;;1.37;1.00;;;;;;;8.75;96.63;153605.91;4994905;28;20529;-79
2023/01/07 02:53:52;;;;;;;1.40;1.20;;;;;;;8.73;95.92;153600.72;4987824;28;20949;-79
2023/01/07 02:56:47;;;;;;;1.47;0.90;;;;;;;8.72;96.11;153598.13;4988468;28;20552;-79
2023/01/07 02:59:48;;;;;;;1.47;1.00;;;;;;;8.72;96.23;153598.13;5003407;28;20452;-79
2023/01/07 03:02:58;;;;;;;2.33;1.40;;;;;;;8.75;95.75;153605.91;4995046;28;20936;-79
2023/01/07 03:05:51;;;;;;;1.70;1.20;;;;;;;8.70;96.21;153592.97;4985861;28;20493;-79
2023/01/07 03:08:53;;;;;;;1.70;1.27;;;;;;;8.69;96.77;153590.38;4995693;28;20828;-79
2023/01/07 03:11:43;;;;;;;1.43;1.13;;;;;;;8.69;97.25;153590.38;5005899;28;20465;-79
2023/01/07 03:14:36;;;;;;;1.47;1.20;;;;;;;8.67;96.58;153585.22;5012076;28;20485;-79
2023/01/07 03:17:25;;;;;;;3.27;2.20;;;;;;;8.68;97.24;153587.81;4993750;28;20463;-79
2023/01/07 03:20:11;;;;;;;1.73;1.53;;;;;;;8.65;95.66;153580.03;4994291;28;20806;-79
2023/01/07 03:22:58;;;;;;;2.73;1.40;;;;;;;8.69;96.02;153590.38;5000455;28;20445;-79
2023/01/07 03:25:46;;;;;;;2.13;1.60;;;;;;;8.65;95.63;153580.03;5025440;28;20944;-79
2023/01/07 03:28:35;;;;;;;2.13;1.60;;;;;;;8.68;99.88;153589.13;4995133;28;20466;-79
2023/01/07 03:31:21;;;;;;;1.60;1.47;;;;;;;8.68;100.00;153587.81;4993890;28;20601;-79
2023/01/07 03:34:10;;;;;;;2.40;1.57;;;;;;;8.66;98.96;153582.66;5014448;28;20469;-79
2023/01/07 03:36:58;;;;;;;1.73;1.40;;;;;;;8.62;96.21;153573.59;5009678;28;20459;-79
2023/01/07 03:39:46;;;;;;;1.93;1.40;;;;;;;8.64;96.25;153577.44;5003522;28;20481;-79
2023/01/07 03:42:40;;;;;;;1.50;1.40;;;;;;;8.64;96.32;153578.75;4993646;28;20802;-79
2023/01/07 03:45:39;;;;;;;1.77;1.40;;;;;;;8.67;96.84;153586.50;4989606;28;20439;-79
2023/01/07 03:48:25;;;;;;;1.60;1.40;;;;;;;8.67;96.44;153586.50;5006324;28;21066;-79
2023/01/07 03:51:10;;;;;;;1.43;1.03;;;;;;;8.67;97.02;153585.22;5000845;28;20439;-79
2023/01/07 03:53:56;;;;;;;1.50;1.40;;;;;;;8.60;94.79;153567.13;4999669;28;20457;-79
2023/01/07 03:56:42;;;;;;;2.10;1.37;;;;;;;8.62;94.85;153573.59;5010222;28;20460;-79
2023/01/07 03:59:28;;;;;;;1.83;1.57;;;;;;;8.65;95.62;153580.03;4993820;28;20963;-79
2023/01/07 04:02:14;;;;;;;2.30;1.10;;;;;;;8.68;93.82;153589.13;5008477;28;20786;-79
2023/01/07 04:05:00;;;;;;;2.77;1.80;;;;;;;8.61;94.32;153569.69;5007903;28;20957;-79
2023/01/07 04:07:45;;;;;;;1.90;1.50;;;;;;;8.66;94.44;153582.66;4995964;28;20457;-79
2023/01/07 04:10:30;;;;;;;2.20;1.80;;;;;;;8.58;94.76;153564.53;4994240;28;20485;-79
2023/01/07 04:13:16;;;;;;;3.17;1.97;;;;;;;8.56;95.00;153559.38;4997697;28;20440;-79
2023/01/07 04:16:05;;;;;;;2.50;2.20;;;;;;;8.53;94.92;153550.28;5006147;28;20475;-79
2023/01/07 04:18:51;;;;;;;3.20;2.20;;;;;;;8.54;97.19;153552.91;4995165;28;20414;-79
2023/01/07 04:21:36;;;;;;;3.43;2.07;;;;;;;8.51;96.59;153546.44;5008153;28;20428;-79
2023/01/07 04:24:23;;;;;;;2.67;2.10;;;;;;;8.49;97.25;153541.28;4992091;28;20582;-79
2023/01/07 04:27:09;;;;;;;3.10;2.20;;;;;;;8.47;96.57;153536.06;4991191;28;20797;-79
2023/01/07 04:29:54;;;;;;;2.03;1.90;;;;;;;8.45;96.59;153530.91;4994456;28;20432;-78
2023/01/07 04:32:40;;;;;;;2.20;1.97;;;;;;;8.46;95.24;153532.22;5008482;28;20449;-79
2023/01/07 04:35:26;;;;;;;2.13;1.97;;;;;;;8.48;96.36;153537.38;4991951;28;20565;-79
2023/01/07 04:38:12;;;;;;;2.37;2.00;;;;;;;8.51;95.22;153545.13;4995813;28;20502;-79
2023/01/07 04:40:58;;;;;;;2.63;2.43;;;;;;;8.51;94.40;153546.44;5013065;28;20425;-79
2023/01/07 04:43:43;;;;;;;2.23;1.90;;;;;;;8.50;93.36;153543.84;5009251;28;20580;-79
2023/01/07 04:46:29;;;;;;;2.30;1.90;;;;;;;8.57;92.45;153561.97;4994539;28;20437;-79
2023/01/07 04:49:16;;;;;;;2.77;2.43;;;;;;;8.56;93.01;153559.38;4993926;28;20571;-79
2023/01/07 04:52:03;;;;;;;2.93;2.23;;;;;;;8.52;93.19;153549.00;5003475;28;21018;-79
2023/01/07 04:54:48;;;;;;;2.97;2.30;;;;;;;8.48;93.41;153537.38;5015031;28;20543;-79
2023/01/07 04:57:34;;;;;;;2.57;2.30;;;;;;;8.42;93.35;153523.16;5001180;28;20448;-79
2023/01/07 05:00:19;;;;;;;2.40;2.20;;;;;;;8.49;93.06;153539.97;5000116;28;20454;-79
2023/01/07 05:03:07;;;;;;;2.80;2.57;;;;;;;8.55;93.04;153556.75;5013241;28;20463;-79
2023/01/07 05:05:55;;;;;;;2.23;2.00;;;;;;;8.44;92.91;153528.34;5013023;28;20455;-79
2023/01/07 05:08:40;;;;;;;2.50;2.30;;;;;;;8.40;93.92;153518.00;5010874;28;20856;-79
2023/01/07 05:11:26;;;;;;;2.80;2.40;;;;;;;8.38;94.76;153512.84;5007929;28;20432;-79
2023/01/07 05:14:14;;;;;;;2.83;2.50;;;;;;;8.38;94.97;153511.53;4989064;28;20942;-78
2023/01/07 05:17:01;;;;;;;3.00;2.27;;;;;;;8.38;95.30;153511.53;4990059;28;20952;-78
2023/01/07 05:19:48;;;;;;;2.93;1.90;;;;;;;8.39;94.94;153514.13;4993244;28;20457;-79
2023/01/07 05:22:36;;;;;;;2.17;1.97;;;;;;;8.48;94.42;153538.69;5002902;28;20948;-79
2023/01/07 05:25:21;;;;;;;2.57;2.37;;;;;;;8.39;94.38;153514.13;5007439;28;20469;-79
2023/01/07 05:28:07;;;;;;;2.57;2.17;;;;;;;8.37;95.08;153510.22;4999718;28;20452;-79
2023/01/07 05:30:57;;;;;;;3.23;2.50;;;;;;;8.39;95.06;153515.38;5002874;28;20943;-79
2023/01/07 05:33:43;;;;;;;4.10;2.73;;;;;;;8.36;95.23;153506.38;4987579;28;20489;-79
2023/01/07 05:36:29;;;;;;;2.60;2.40;;;;;;;8.32;95.38;153497.31;4999359;28;20567;-79
2023/01/07 05:39:16;;;;;;;3.30;2.93;;;;;;;8.35;95.71;153505.06;4991196;28;20959;-79
2023/01/07 05:42:04;;;;;;;2.50;2.30;;;;;;;8.31;95.07;153494.72;4990727;28;20617;-82
2023/01/07 05:44:50;;;;;;;3.53;3.07;;;;;;;8.30;95.58;153492.16;4981300;28;20495;-82
2023/01/07 05:47:35;;;;;;;6.50;2.33;;;;;;;8.31;96.07;153494.72;4988010;28;20602;-82
2023/01/07 05:50:21;;;;;;;3.03;2.60;;;;;;;8.39;96.12;153515.38;4989145;28;20439;-82
2023/01/07 05:53:07;;;;;;;2.97;2.20;;;;;;;8.31;95.52;153494.72;4993180;28;20514;-82
2023/01/07 05:55:57;;;;;;;2.50;2.13;;;;;;;8.29;95.39;153489.56;4991544;28;20579;-82
2023/01/07 05:58:42;;;;;;;2.47;2.00;;;;;;;8.28;95.80;153487.00;4991987;28;20450;-82
2023/01/07 06:01:27;;;;;;;3.97;3.10;;;;;;;8.27;97.62;153483.09;4991227;28;20672;-82
2023/01/07 06:04:13;;;;;;;2.90;2.50;;;;;;;8.27;96.88;153483.09;4990304;28;20449;-82
2023/01/07 06:07:01;;;;;;;3.20;2.60;;;;;;;8.27;96.57;153484.41;4984032;28;20532;-83
2023/01/07 06:09:46;;;;;;;2.17;1.97;;;;;;;8.24;96.23;153476.59;4994070;28;20452;-82
2023/01/07 06:12:34;;;;;;;2.43;2.23;;;;;;;8.28;96.68;153487.00;4986374;28;20453;-83
2023/01/07 06:15:19;;;;;;;3.73;2.00;;;;;;;8.24;96.65;153475.28;4983801;28;20672;-84
2023/01/07 06:18:04;;;;;;;2.63;2.40;;;;;;;8.26;96.31;153480.50;4980605;28;20458;-83
2023/01/07 06:20:50;;;;;;;3.37;2.30;;;;;;;8.27;97.47;153484.41;4992898;28;20593;-83
2023/01/07 06:23:36;;;;;;;3.10;2.17;;;;;;;8.20;96.44;153466.28;4984114;28;20449;-82
2023/01/07 06:26:21;;;;;;;2.50;2.10;;;;;;;8.18;97.47;153461.06;4979851;28;20445;-82
2023/01/07 06:29:08;;;;;;;2.23;1.70;;;;;;;8.18;96.33;153459.81;4978911;28;20454;-83
2023/01/07 06:31:53;;;;;;;3.77;2.43;;;;;;;8.13;96.10;153446.88;4994166;28;20453;-83
2023/01/07 06:34:39;;;;;;;2.60;2.23;;;;;;;8.16;96.36;153454.59;4980526;28;20481;-82
2023/01/07 06:37:24;;;;;;;2.50;2.10;;;;;;;8.16;96.97;153454.59;4983793;28;20911;-82
2023/01/07 06:40:10;;;;;;;2.07;1.77;;;;;;;8.15;96.19;153452.03;4985661;28;20438;-82
2023/01/07 06:42:56;;;;;;;3.33;2.13;;;;;;;8.14;96.14;153450.75;4986888;28;20497;-83
2023/01/07 06:45:44;;;;;;;1.70;1.27;;;;;;;8.17;96.05;153458.50;4982478;28;20482;-82
2023/01/07 06:48:29;;;;;;;1.90;1.67;;;;;;;8.15;96.09;153453.34;4981813;28;20459;-79
2023/01/07 06:51:15;;;;;;;1.87;1.40;;;;;;;8.16;96.61;153454.59;4986805;28;20567;-79
2023/01/07 06:54:00;;;;;;;1.80;1.50;;;;;;;8.13;95.22;153448.13;4988622;28;20444;-79
2023/01/07 06:56:45;;;;;;;2.00;1.60;;;;;;;8.07;95.29;153432.66;4984625;28;21009;-79
2023/01/07 06:59:31;;;;;;;2.20;1.60;;;;;;;8.06;95.56;153428.75;4989531;28;21054;-79
2023/01/07 07:02:20;;;;;;;2.10;1.67;;;;;;;8.06;96.47;153430.06;4985957;28;20457;-79
2023/01/07 07:05:06;;;;;;;1.70;1.30;;;;;;;8.10;99.38;153440.38;4988916;28;20446;-78
2023/01/07 07:07:51;;;;;;;2.80;1.60;;;;;;;8.04;96.67;153424.91;4990223;28;20442;-78
2023/01/07 07:10:37;;;;;;;1.97;1.30;;;;;;;8.04;97.39;153424.91;4986653;28;20954;-79
2023/01/07 07:13:22;;;;;;;2.43;1.40;;;;;;;8.05;99.97;153427.47;4986695;28;20798;-79
2023/01/07 07:16:07;;;;;;;1.63;1.30;;;;;;;8.05;99.36;153427.47;4988361;28;20945;-79
2023/01/07 07:18:54;;;;;;;1.50;1.17;;;;;;;8.04;97.37;153423.63;4988548;28;20441;-79
2023/01/07 07:21:39;;;;;;;1.53;1.23;;;;;;;8.03;98.78;153421.00;4989787;28;20532;-78
2023/01/07 07:24:25;;;;;;;2.77;1.20;;;;;;;8.01;96.71;153415.84;4987424;28;20454;-78
2023/01/07 07:27:10;;;;;;;1.63;1.33;;;;;;;8.05;98.60;153426.22;4989305;28;20457;-83
2023/01/07 07:29:55;;;;;;;2.20;1.40;;;;;;;8.02;96.82;153419.75;5000748;28;20443;-83
2023/01/07 07:32:41;;;;;;;2.20;1.40;;;;;;;8.04;97.72;153423.63;4992404;28;20449;-83
2023/01/07 07:35:28;;;;;;;1.97;1.57;;;;;;;8.04;98.25;153424.91;4988241;28;20497;-82
2023/01/07 07:38:13;;;;;;;1.30;1.10;;;;;;;8.03;98.36;153421.00;4987433;28;20484;-83
2023/01/07 07:41:00;;;;;;;1.43;1.17;;;;;;;8.00;97.97;153414.53;5000321;28;20539;-84
2023/01/07 07:43:46;;;;;;;1.40;1.00;;;;;;;8.03;96.74;153422.31;4988833;28;20500;-82
2023/01/07 07:46:31;;;;;;;1.73;1.20;;;;;;;8.01;95.57;153417.16;4987067;28;20462;-82
2023/01/07 07:49:16;;;;;;;2.07;1.33;;;;;;;8.09;97.31;153437.81;4985366;28;20453;-83
2023/01/07 07:52:04;;;;;;;2.00;1.43;;;;;;;8.01;94.86;153417.16;4991355;28;20458;-82
2023/01/07 07:54:49;;;;;;;1.40;1.27;;;;;;;8.07;94.97;153432.66;4994216;28;20931;-82
2023/01/07 07:57:34;;;;;;;1.40;1.30;;;;;;;8.05;95.51;153426.22;4998859;28;20876;-82
2023/01/07 08:00:20;;;;;;;2.10;1.40;;;;;;;8.06;97.01;153428.75;5001117;28;20441;-82
2023/01/07 08:03:05;;;;;;;1.90;1.47;;;;;;;8.07;97.86;153431.38;4994739;28;20601;-82
2023/01/07 08:05:51;;;;;;;1.60;1.30;;;;;;;8.08;98.48;153435.22;4991516;28;20492;-82
2023/01/07 08:08:37;;;;;;;1.60;1.23;;;;;;;8.09;96.08;153437.81;4990697;28;20454;-82
2023/01/07 08:11:23;;;;;;;1.63;1.30;;;;;;;8.11;98.70;153443.00;4988134;28;20728;-82
2023/01/07 08:14:14;;;;;;;1.70;1.30;;;;;;;8.07;95.58;153431.38;4987266;28;20426;-82
2023/01/07 08:17:00;;;;;;;1.83;1.40;;;;;;;8.13;98.03;153446.88;4999231;28;20500;-82
2023/01/07 08:19:45;;;;;;;1.53;1.23;;;;;;;8.12;97.45;153445.59;4998804;28;21044;-82
2023/01/07 08:22:32;;;;;;;1.77;1.20;;;;;;;8.15;97.06;153452.03;5004841;28;20453;-83
2023/01/07 08:25:19;;;;;;;2.33;1.53;;;;;;;8.13;95.58;153446.88;4997551;28;20535;-83
2023/01/07 08:28:05;;;;;;;2.07;1.50;;;;;;;8.13;95.17;153446.88;4994135;28;20473;-83
2023/01/07 08:30:50;;;;;;;1.90;1.70;;;;;;;8.17;95.65;153458.50;4988869;28;20442;-83
2023/01/07 08:33:38;;;;;;;2.77;2.03;;;;;;;8.18;95.43;153461.06;4996387;28;20448;-79
2023/01/07 08:36:23;;;;;;;3.20;2.40;;;;;;;8.19;93.87;153463.66;4991943;28;20461;-79
2023/01/07 08:39:09;;;;;;;2.30;1.70;;;;;;;8.19;93.20;153463.66;4994494;28;20446;-83
2023/01/07 08:41:56;;;;;;;5.93;3.80;;;;;;;8.36;93.12;153507.69;4994677;28;20469;-83
2023/01/07 08:44:42;;;;;;;2.30;1.90;;;;;;;8.24;92.25;153476.59;4984885;28;20453;-83
2023/01/07 08:47:28;;;;;;;2.90;2.40;;;;;;;8.26;93.20;153481.75;4989938;28;20543;-83
2023/01/07 08:50:13;;;;;;;2.43;2.03;;;;;;;8.24;93.35;153476.59;4981550;28;20455;-83
2023/01/07 08:52:59;;;;;;;3.40;2.60;;;;;;;8.29;93.13;153489.56;5004843;28;20470;-83
2023/01/07 08:55:45;;;;;;;3.00;2.27;;;;;;;8.32;92.49;153496.00;4990116;28;20469;-83
2023/01/07 08:58:31;;;;;;;2.10;1.70;;;;;;;8.31;94.03;153494.72;4991836;28;20453;-83
2023/01/07 09:01:17;;;;;;;2.50;1.60;;;;;;;8.34;94.31;153502.47;4995486;28;20437;-83
2023/01/07 09:04:02;;;;;;;3.13;2.10;;;;;;;8.37;95.49;153510.22;4993323;28;20452;-83
2023/01/07 09:06:48;;;;;;;4.70;2.67;;;;;;;8.37;95.24;153510.22;4990170;28;20446;-83
2023/01/07 09:09:33;;;;;;;3.80;2.20;;;;;;;8.40;94.03;153516.69;4988337;28;20448;-83
2023/01/07 09:12:18;;;;;;;3.10;2.03;;;;;;;8.48;92.77;153537.38;4989916;28;20452;-83
2023/01/07 09:15:06;;;;;;;2.30;2.10;;;;;;;8.52;92.02;153549.00;4991532;28;20471;-83
2023/01/07 09:17:52;;;;;;;2.97;2.23;;;;;;;8.54;91.92;153552.91;4996668;28;20520;-83
2023/01/07 09:20:37;;;;;;;3.60;2.73;;;;;;;8.54;92.74;153552.91;4994975;28;20521;-83
2023/01/07 09:23:23;;;;;;;3.13;2.73;;;;;;;8.58;93.07;153563.22;4994459;28;20500;-83
2023/01/07 09:26:08;;;;;;;3.23;2.63;;;;;;;8.62;92.80;153572.28;4991820;28;20450;-83
2023/01/07 09:28:54;;;;;;;1.80;1.60;;;;;;;8.68;95.55;153587.81;4992704;28;20457;-83
2023/01/07 09:31:41;;;;;;;2.20;1.63;;;;;;;8.71;94.53;153595.56;4994700;28;20441;-83
2023/01/07 09:34:26;;;;;;;2.27;1.87;;;;;;;8.70;94.86;153592.97;4991975;28;20588;-83
2023/01/07 09:37:11;;;;;;;3.70;2.07;;;;;;;8.70;92.73;153592.97;4991157;28;20489;-83
2023/01/07 09:39:59;;;;;;;2.80;2.20;;;;;;;8.76;96.56;153608.50;4991869;28;20482;-82
2023/01/07 09:42:50;;;;;;;3.20;2.50;;;;;;;8.74;91.76;153603.28;4990182;28;20801;-82
2023/01/07 09:45:37;;;;;;;2.63;2.27;;;;;;;8.82;92.20;153623.97;4995591;28;20454;-82
2023/01/07 09:48:28;;;;;;;3.30;2.37;;;;;;;8.88;94.04;153639.50;4996961;28;20446;-82
2023/01/07 09:51:17;;;;;;;3.77;2.77;;;;;;;8.86;92.46;153634.34;4995508;28;20461;-82
2023/01/07 09:54:04;;;;;;;3.73;3.30;;;;;;;8.90;93.61;153644.66;4994591;28;20971;-81
2023/01/07 09:56:50;;;;;;;3.80;3.13;;;;;;;8.90;91.78;153644.66;4993850;28;20560;-82
2023/01/07 09:59:35;;;;;;;4.63;3.50;;;;;;;8.96;92.78;153661.50;4994648;28;20562;-82
2023/01/07 10:02:33;;;;;;;4.23;3.10;;;;;;;9.04;92.03;153682.19;4993645;28;20436;-82
2023/01/07 10:05:31;;;;;;;6.20;2.97;;;;;;;9.01;92.28;153674.44;4993184;28;20465;-82
2023/01/07 10:08:25;;;;;;;4.03;3.23;;;;;;;9.00;90.65;153671.81;4995561;28;20796;-82
2023/01/07 10:11:19;;;;;;;4.10;3.70;;;;;;;9.09;91.63;153695.13;4994180;28;20593;-83
2023/01/07 10:14:25;;;;;;;4.20;3.30;;;;;;;9.12;90.13;153701.59;4986773;28;20464;-82
2023/01/07 10:17:20;;;;;;;5.10;3.83;;;;;;;9.14;90.02;153708.03;4990968;28;20460;-82
2023/01/07 10:20:13;;;;;;;3.87;3.10;;;;;;;9.10;89.59;153697.72;4987585;28;20968;-82
2023/01/07 10:23:03;;;;;;;4.30;3.30;;;;;;;9.18;90.83;153717.13;5007218;28;20448;-82
2023/01/07 10:25:51;;;;;;;5.50;3.53;;;;;;;9.21;88.71;153723.59;4982207;28;20980;-82
2023/01/07 10:28:40;;;;;;;5.30;4.40;;;;;;;9.23;88.05;153728.75;4996109;28;20595;-82
2023/01/07 10:31:27;;;;;;;4.20;3.47;;;;;;;9.18;88.17;153718.41;4992457;28;20457;-82
2023/01/07 10:34:13;;;;;;;5.20;4.30;;;;;;;9.15;88.24;153710.66;5015469;28;20524;-82
2023/01/07 10:37:02;;;;;;;4.63;3.80;;;;;;;9.19;88.34;153719.69;4991114;28;21108;-82
2023/01/07 10:39:56;;;;;;;5.57;4.23;;;;;;;9.18;88.64;153717.13;4997712;28;20437;-82
2023/01/07 10:42:45;;;;;;;5.50;4.37;;;;;;;9.09;91.64;153693.81;4998701;28;20731;-83
2023/01/07 10:45:49;;;;;;;4.97;4.43;;;;;;;9.01;92.26;153673.13;4972418;28;20422;-82
2023/01/07 10:48:44;;;;;;;5.50;4.10;;;;;;;9.01;90.66;153674.44;4974417;28;20814;-82
2023/01/07 10:51:45;;;;;;;4.77;4.07;;;;;;;8.99;90.49;153669.25;5001162;28;21003;-82
2023/01/07 10:54:44;;;;;;;4.70;4.17;;;;;;;9.03;90.64;153678.28;5010267;28;20945;-82
2023/01/07 10:57:31;;;;;;;4.67;3.80;;;;;;;9.10;88.95;153697.72;4990768;28;20509;-82
2023/01/07 11:00:18;;;;;;;4.87;4.00;;;;;;;9.10;88.71;153696.41;4991420;28;20518;-82
2023/01/07 11:03:03;;;;;;;5.43;4.20;;;;;;;9.07;90.03;153688.66;5011270;28;20402;-82
2023/01/07 11:05:51;;;;;;;4.70;3.70;;;;;;;9.06;89.31;153686.06;4992948;28;20446;-82
2023/01/07 11:08:38;;;;;;;6.90;4.70;;;;;;;9.24;88.32;153732.59;5000719;28;20461;-82
2023/01/07 11:11:24;;;;;;;4.87;4.30;;;;;;;9.22;88.44;153726.13;4973669;28;20415;-82
2023/01/07 11:14:12;;;;;;;7.70;4.60;;;;;;;9.32;87.45;153753.31;4985167;28;20573;-82
2023/01/07 11:17:10;;;;;;;6.20;5.10;;;;;;;9.35;87.37;153761.06;4993443;28;20578;-82
2023/01/07 11:19:56;;;;;;;4.07;3.60;;;;;;;9.38;86.59;153768.84;4991049;28;20525;-82
2023/01/07 11:22:41;;;;;;;5.00;3.90;;;;;;;9.28;87.25;153742.97;4993204;28;20472;-82
2023/01/07 11:25:28;;;;;;;4.60;3.80;;;;;;;9.34;86.38;153758.50;4992648;28;20535;-82
2023/01/07 11:28:18;;;;;;;5.37;4.40;;;;;;;9.33;87.58;153754.59;4982666;28;20492;-82
2023/01/07 11:31:04;;;;;;;4.47;3.80;;;;;;;9.54;86.30;153810.25;4991125;28;20437;-82
2023/01/07 11:33:51;;;;;;;4.13;3.40;;;;;;;9.50;86.14;153799.91;4992146;28;20453;-82
2023/01/07 11:36:40;;;;;;;5.33;3.70;;;;;;;9.31;86.59;153750.75;5003675;28;20652;-82
2023/01/07 11:39:28;;;;;;;5.37;4.00;;;;;;;9.29;87.20;153744.28;4995526;28;20964;-82
2023/01/07 11:45:20;;;;;;;4.87;4.17;;;;;;;9.41;86.26;153775.31;5032020;28;20432;-82
2023/01/07 11:48:09;;;;;;;4.40;3.70;;;;;;;9.56;85.89;153814.09;4993885;28;20444;-82
2023/01/07 11:50:56;;;;;;;6.93;4.67;;;;;;;9.40;86.07;153772.75;4983845;28;20441;-82
2023/01/07 11:53:44;;;;;;;5.00;4.20;;;;;;;9.42;86.59;153779.22;4999568;28;20793;-82
2023/01/07 11:56:31;;;;;;;4.70;4.20;;;;;;;9.46;86.29;153789.53;4975130;28;20513;-82
2023/01/07 11:59:29;;;;;;;6.40;4.97;;;;;;;9.50;86.17;153799.91;4984008;28;21074;-82
2023/01/07 12:02:24;;;;;;;6.23;5.13;;;;;;;9.49;85.44;153796.00;5000066;28;20445;-82
2023/01/07 12:05:19;;;;;;;5.23;4.37;;;;;;;9.54;84.91;153810.25;4997812;28;20561;-82
2023/01/07 12:08:05;;;;;;;5.60;4.97;;;;;;;9.68;85.33;153845.16;4995605;28;20449;-82
2023/01/07 12:10:54;;;;;;;4.53;4.07;;;;;;;9.60;85.13;153824.47;4996849;28;20953;-82
2023/01/07 12:13:41;;;;;;;6.03;4.77;;;;;;;9.49;85.70;153797.31;4998394;28;20449;-82
2023/01/07 12:16:27;;;;;;;5.33;4.83;;;;;;;9.66;84.90;153840.00;4998840;28;20508;-82
2023/01/07 12:19:22;;;;;;;5.40;4.30;;;;;;;9.66;84.26;153841.25;4980917;28;20450;-82
2023/01/07 12:22:18;;;;;;;5.00;4.47;;;;;;;9.58;84.86;153819.31;4987579;28;20454;-82
2023/01/07 12:25:13;;;;;;;4.60;4.07;;;;;;;9.48;86.06;153794.69;4994681;28;20437;-82
2023/01/07 12:28:09;;;;;;;5.53;4.53;;;;;;;9.52;86.18;153805.06;4990843;28;20434;-82
2023/01/07 12:31:17;;;;;;;5.20;4.53;;;;;;;9.57;86.22;153818.00;5004277;28;20414;-82
2023/01/07 12:34:10;;;;;;;5.87;4.00;;;;;;;9.54;84.73;153808.94;4993542;28;20436;-82
2023/01/07 12:36:59;;;;;;;6.13;5.20;;;;;;;9.60;84.32;153825.78;4992103;28;20453;-82
2023/01/07 12:39:46;;;;;;;4.80;4.30;;;;;;;9.65;84.44;153837.41;5003964;28;20595;-82
2023/01/07 12:42:36;;;;;;;4.27;3.73;;;;;;;9.53;85.03;153807.63;5014478;28;20425;-82
2023/01/07 12:45:25;;;;;;;5.40;4.53;;;;;;;9.47;84.80;153792.13;4988954;28;20453;-82
2023/01/07 12:48:16;;;;;;;5.80;5.20;;;;;;;9.43;84.21;153781.75;4999801;28;20622;-82
2023/01/07 12:51:05;;;;;;;6.00;4.47;;;;;;;9.51;84.50;153801.16;4989189;28;20497;-82
2023/01/07 12:53:52;;;;;;;5.93;5.27;;;;;;;9.46;84.91;153789.53;4994594;28;20461;-82
2023/01/07 12:56:43;;;;;;;4.77;3.67;;;;;;;9.63;83.93;153832.25;4998454;28;20633;-82
2023/01/07 12:59:34;;;;;;;5.30;4.80;;;;;;;9.49;83.60;153796.00;4996307;28;20568;-82
2023/01/07 13:02:27;;;;;;;4.43;4.03;;;;;;;9.48;84.45;153794.69;4993959;28;20983;-83
2023/01/07 13:05:16;;;;;;;5.80;4.87;;;;;;;9.51;84.97;153801.16;4987918;28;20553;-83
2023/01/07 13:08:09;;;;;;;4.70;4.20;;;;;;;9.46;84.71;153789.53;4991035;28;20446;-83
2023/01/07 13:10:59;;;;;;;6.13;4.73;;;;;;;9.47;84.18;153792.13;4991073;28;20409;-83
2023/01/07 13:13:48;;;;;;;5.57;4.67;;;;;;;9.53;83.74;153807.63;4994970;28;20469;-83